Metropolis, IL

10:12 AM CDT on September 18, 2014 (GMT -0500)
Metropolis | Change Station
CLOSE
Current Station
Personal Weather Station
Location: Metropolis, IL
Elevation: 359 ft
Nearby Weather Stations

Elev 359 ft 37.16 °N, 88.73 °W | Updated 1 second ago

Overcast
Overcast
68.2 °F
Feels Like 68.2 °F
N
9.0
Wind Variable Wind from SE
Gusts 9.0 mph

Today
High -- | Low -- °F
--% Chance of Precip.
Yesterday
High -- | Low -- °F
Precip. -- in
6:39 AM 6:57 PM
Waning Crescent, 26% visible
Pressure 30.03 in
Visibility 10.0 miles
Clouds Overcast 3700 ft
Dew Point 58 °F
Humidity 70%
Rainfall 0.00 in
Snow Depth Not available.
UV 1 out of 12
Pollen 7.50 out of 12
Air Quality Not available.
Flu Activity Not available.
METAR KM30 181455Z AUTO 06005KT 10SM OVC037 20/15 A3003 RMK AO2 LTG DSNT SW T02000146

More Conditions Fewer Conditions

Pressure 30.03 in
Visibility 10.0 miles
Clouds Overcast 3700 ft
Dew Point 58 °F
Humidity 70%
Rainfall 0.00 in
Snow Depth Not available.
UV 1 out of 12
Pollen 7.50 out of 12
Air Quality Not available.
Flu Activity Not available.
METAR KM30 181455Z AUTO 06005KT 10SM OVC037 20/15 A3003 RMK AO2 LTG DSNT SW T02000146

More Conditions Fewer Conditions

10-Day Weather Forecast

Almanac

Astronomy

Sep. 18, 2014 Rise Set
Actual Time 6:39 AM CDT 6:57 PM CDT
Civil Twilight 6:13 AM CDT 7:23 PM CDT
Nautical Twilight 5:42 AM CDT 7:54 PM CDT
Astronomical Twilight 5:11 AM CDT 8:25 PM CDT
Moon 1:36 AM CDT 3:44 PM CDT
Length of Visible Light 13h 10m
Length of Day
12h 18m
Tomorrow will be 2m 21s shorter.
Waning Crescent, 26% of the Moon is Illuminated
Today
Waning Crescent
Sep 24
New
Oct 1
First Quarter
Oct 8
Full
Oct 15
Last Quarter

Today's Extremes

State Highs State Lows

Community

WunderPhotos

Upload Photos

1,754,368 photos uploaded!

Nearby

Snow Depth

Station Depth Elevation
No new snow has been reported.

Earthquake Activity

City Distance Mag. Time & Date
No recent earthquake activity has been reported nearby.
Minimum magnitude displayed is 2.5.

Coastal Water Temperatures

Place Temperature
No Stations Reporting

Nearby Weather Stations